Time,TemperatureF,DewpointF,PressureIn,WindDirection,WindDirectionDegrees,WindSpeedMPH,WindSpeedGustMPH,Humidity,HourlyPrecipIn,Conditions,Clouds,dailyrainin,SoftwareType,DateUTC
2013-04-25 00:01:00,56.9,36.9,30.06,West,280,3.0,10.0,47,0.00,,,0.00,WeatherCatV1.10B1784,2013-04-25 07:01:00,
2013-04-25 00:06:00,56.8,37.3,30.06,West,271,6.0,6.0,48,0.00,,,0.00,WeatherCatV1.10B1784,2013-04-25 07:06:00,
2013-04-25 00:11:00,56.5,37.6,30.06,West,276,7.0,12.0,49,0.00,,,0.00,WeatherCatV1.10B1784,2013-04-25 07:11:00,
2013-04-25 00:16:00,56.5,38.1,30.06,West,271,10.0,11.0,50,0.00,,,0.00,WeatherCatV1.10B1784,2013-04-25 07:16:00,
2013-04-25 00:21:00,56.2,37.8,30.06,West,259,6.0,10.0,50,0.00,,,0.00,WeatherCatV1.10B1784,2013-04-25 07:21:00,
2013-04-25 00:26:00,56.1,38.2,30.06,West,274,5.0,12.0,51,0.00,,,0.00,WeatherCatV1.10B1784,2013-04-25 07:26:00,
2013-04-25 00:32:00,55.9,38.5,30.06,West,274,4.0,14.0,52,0.00,,,0.00,WeatherCatV1.10B1784,2013-04-25 07:32:00,
2013-04-25 00:37:00,55.6,38.7,30.07,West,263,6.0,13.0,53,0.00,,,0.00,WeatherCatV1.10B1784,2013-04-25 07:37:00,
2013-04-25 00:42:00,55.4,39.0,30.07,West,281,5.0,6.0,54,0.00,,,0.00,WeatherCatV1.10B1784,2013-04-25 07:42:00,
2013-04-25 00:47:00,55.3,38.9,30.07,WNW,283,5.0,13.0,54,0.00,,,0.00,WeatherCatV1.10B1784,2013-04-25 07:47:00,
2013-04-25 00:52:00,55.2,38.8,30.06,West,275,6.0,11.0,54,0.00,,,0.00,WeatherCatV1.10B1784,2013-04-25 07:52:00,
2013-04-25 00:57:00,55.2,38.8,30.06,West,280,9.0,14.0,54,0.00,,,0.00,WeatherCatV1.10B1784,2013-04-25 07:57:00,
2013-04-25 01:02:00,55.2,38.8,30.06,West,267,8.0,15.0,54,0.00,,,0.00,WeatherCatV1.10B1784,2013-04-25 08:02:00,
2013-04-25 01:07:00,55.0,39.1,30.06,WNW,298,5.0,14.0,55,0.00,,,0.00,WeatherCatV1.10B1784,2013-04-25 08:07:00,
2013-04-25 01:12:00,55.1,38.8,30.06,West,269,7.0,13.0,54,0.00,,,0.00,WeatherCatV1.10B1784,2013-04-25 08:12:00,
2013-04-25 01:17:00,55.1,38.3,30.06,WSW,239,6.0,9.0,53,0.00,,,0.00,WeatherCatV1.10B1784,2013-04-25 08:17:00,
2013-04-25 01:22:00,55.1,38.3,30.06,WNW,285,7.0,11.0,53,0.00,,,0.00,WeatherCatV1.10B1784,2013-04-25 08:22:00,
2013-04-25 01:27:00,55.1,38.8,30.06,West,274,8.0,10.0,54,0.00,,,0.00,WeatherCatV1.10B1784,2013-04-25 08:27:00,
2013-04-25 01:32:00,55.1,38.3,30.06,WNW,284,10.0,14.0,53,0.00,,,0.00,WeatherCatV1.10B1784,2013-04-25 08:32:00,
2013-04-25 01:37:00,55.2,38.4,30.06,West,272,9.0,16.0,53,0.00,,,0.00,WeatherCatV1.10B1784,2013-04-25 08:37:00,
2013-04-25 01:42:00,55.2,38.4,30.06,West,263,13.0,13.0,53,0.00,,,0.00,WeatherCatV1.10B1784,2013-04-25 08:42:00,
2013-04-25 01:47:00,55.1,38.8,30.05,NW,311,13.0,13.0,54,0.00,,,0.00,WeatherCatV1.10B1784,2013-04-25 08:47:00,
2013-04-25 01:52:00,55.2,38.4,30.05,West,274,4.0,13.0,53,0.00,,,0.00,WeatherCatV1.10B1784,2013-04-25 08:52:00,
2013-04-25 01:57:00,55.1,38.8,30.05,West,277,7.0,10.0,54,0.00,,,0.00,WeatherCatV1.10B1784,2013-04-25 08:57:00,
2013-04-25 02:02:00,54.7,38.9,30.05,WSW,248,8.0,14.0,55,0.00,,,0.00,WeatherCatV1.10B1784,2013-04-25 09:02:00,
2013-04-25 02:07:00,54.5,39.1,30.05,West,269,5.0,9.0,56,0.00,,,0.00,WeatherCatV1.10B1784,2013-04-25 09:07:00,
2013-04-25 02:12:00,54.2,38.8,30.05,West,280,9.0,11.0,56,0.00,,,0.00,WeatherCatV1.10B1784,2013-04-25 09:12:00,
2013-04-25 02:17:00,54.2,38.8,30.05,WSW,257,9.0,14.0,56,0.00,,,0.00,WeatherCatV1.10B1784,2013-04-25 09:17:00,
2013-04-25 02:22:00,54.1,39.2,30.05,West,278,3.0,5.0,57,0.00,,,0.00,WeatherCatV1.10B1784,2013-04-25 09:22:00,
2013-04-25 02:27:00,53.9,39.5,30.05,West,278,8.0,9.0,58,0.00,,,0.00,WeatherCatV1.10B1784,2013-04-25 09:27:00,
2013-04-25 02:32:00,53.9,39.0,30.05,West,267,5.0,15.0,57,0.00,,,0.00,WeatherCatV1.10B1784,2013-04-25 09:32:00,
2013-04-25 02:37:00,53.9,39.0,30.05,WNW,291,2.0,8.0,57,0.00,,,0.00,WeatherCatV1.10B1784,2013-04-25 09:37:00,
2013-04-25 02:42:00,53.8,38.9,30.05,West,281,9.0,11.0,57,0.00,,,0.00,WeatherCatV1.10B1784,2013-04-25 09:42:00,
2013-04-25 02:47:00,53.7,39.7,30.05,WNW,289,5.0,7.0,59,0.00,,,0.00,WeatherCatV1.10B1784,2013-04-25 09:47:00,
2013-04-25 02:52:00,53.6,39.2,30.05,WNW,290,2.0,9.0,58,0.00,,,0.00,WeatherCatV1.10B1784,2013-04-25 09:52:00,
2013-04-25 02:57:00,53.5,39.5,30.05,West,276,4.0,6.0,59,0.00,,,0.00,WeatherCatV1.10B1784,2013-04-25 09:57:00,
2013-04-25 03:02:00,53.4,39.4,30.05,West,281,7.0,7.0,59,0.00,,,0.00,WeatherCatV1.10B1784,2013-04-25 10:02:00,
2013-04-25 03:07:00,53.4,39.4,30.04,West,277,5.0,6.0,59,0.00,,,0.00,WeatherCatV1.10B1784,2013-04-25 10:07:00,
2013-04-25 03:12:00,53.3,39.3,30.04,SW,215,3.0,8.0,59,0.00,,,0.00,WeatherCatV1.10B1784,2013-04-25 10:12:00,
2013-04-25 03:17:00,53.1,40.0,30.04,West,279,5.0,8.0,61,0.00,,,0.00,WeatherCatV1.10B1784,2013-04-25 10:17:00,
2013-04-25 03:22:00,53.0,39.5,30.05,West,280,4.0,7.0,60,0.00,,,0.00,WeatherCatV1.10B1784,2013-04-25 10:22:00,
2013-04-25 03:27:00,52.9,39.8,30.05,NW,308,3.0,7.0,61,0.00,,,0.00,WeatherCatV1.10B1784,2013-04-25 10:27:00,
2013-04-25 03:32:00,52.8,40.6,30.04,West,281,6.0,8.0,63,0.00,,,0.00,WeatherCatV1.10B1784,2013-04-25 10:32:00,
2013-04-25 03:37:00,52.8,40.6,30.04,SSW,211,4.0,8.0,63,0.00,,,0.00,WeatherCatV1.10B1784,2013-04-25 10:37:00,
2013-04-25 03:42:00,52.7,40.5,30.05,WNW,291,6.0,6.0,63,0.00,,,0.00,WeatherCatV1.10B1784,2013-04-25 10:42:00,
2013-04-25 03:47:00,52.6,41.2,30.05,NW,305,7.0,7.0,65,0.00,,,0.00,WeatherCatV1.10B1784,2013-04-25 10:47:00,
2013-04-25 03:52:00,52.6,41.6,30.05,WNW,293,4.0,9.0,66,0.00,,,0.00,WeatherCatV1.10B1784,2013-04-25 10:52:00,
2013-04-25 03:57:00,52.5,41.1,30.05,NW,319,5.0,11.0,65,0.00,,,0.00,WeatherCatV1.10B1784,2013-04-25 10:57:00,
2013-04-25 04:02:00,52.5,41.9,30.05,WNW,284,6.0,11.0,67,0.00,,,0.00,WeatherCatV1.10B1784,2013-04-25 11:02:00,
2013-04-25 04:07:00,52.5,41.9,30.05,WNW,295,6.0,12.0,67,0.00,,,0.00,WeatherCatV1.10B1784,2013-04-25 11:07:00,
2013-04-25 04:12:00,52.5,41.5,30.05,West,280,4.0,6.0,66,0.00,,,0.00,WeatherCatV1.10B1784,2013-04-25 11:12:00,
2013-04-25 04:17:00,52.4,41.0,30.05,West,268,4.0,4.0,65,0.00,,,0.00,WeatherCatV1.10B1784,2013-04-25 11:17:00,
2013-04-25 04:22:00,52.3,40.5,30.05,WSW,249,6.0,9.0,64,0.00,,,0.00,WeatherCatV1.10B1784,2013-04-25 11:22:00,
2013-04-25 04:27:00,52.1,39.9,30.05,West,277,4.0,6.0,63,0.00,,,0.00,WeatherCatV1.10B1784,2013-04-25 11:27:00,
2013-04-25 04:32:00,52.0,40.2,30.05,WSW,257,1.0,4.0,64,0.00,,,0.00,WeatherCatV1.10B1784,2013-04-25 11:32:00,
2013-04-25 04:37:00,51.8,40.8,30.05,WNW,287,2.0,4.0,66,0.00,,,0.00,WeatherCatV1.10B1784,2013-04-25 11:37:00,
2013-04-25 04:42:00,51.6,41.0,30.05,WNW,297,4.0,6.0,67,0.00,,,0.00,WeatherCatV1.10B1784,2013-04-25 11:42:00,
2013-04-25 04:47:00,51.6,42.1,30.04,WSW,257,1.0,5.0,70,0.00,,,0.00,WeatherCatV1.10B1784,2013-04-25 11:47:00,
2013-04-25 04:52:00,51.4,41.9,30.05,NW,316,0.0,2.0,70,0.00,,,0.00,WeatherCatV1.10B1784,2013-04-25 11:52:00,
2013-04-25 04:57:00,51.2,42.1,30.05,North,1,4.0,4.0,71,0.00,,,0.00,WeatherCatV1.10B1784,2013-04-25 11:57:00,
2013-04-25 05:02:00,51.2,42.8,30.05,WNW,293,5.0,7.0,73,0.00,,,0.00,WeatherCatV1.10B1784,2013-04-25 12:02:00,
2013-04-25 05:07:00,51.2,42.1,30.05,WNW,282,2.0,6.0,71,0.00,,,0.00,WeatherCatV1.10B1784,2013-04-25 12:07:00,
2013-04-25 05:12:00,51.2,42.5,30.05,WNW,285,3.0,7.0,72,0.00,,,0.00,WeatherCatV1.10B1784,2013-04-25 12:12:00,
2013-04-25 05:17:00,51.3,42.6,30.05,NW,309,6.0,8.0,72,0.00,,,0.00,WeatherCatV1.10B1784,2013-04-25 12:17:00,
2013-04-25 05:22:00,51.4,42.7,30.05,WNW,295,4.0,5.0,72,0.00,,,0.00,WeatherCatV1.10B1784,2013-04-25 12:22:00,
2013-04-25 05:27:00,51.4,41.9,30.05,WNW,289,4.0,6.0,70,0.00,,,0.00,WeatherCatV1.10B1784,2013-04-25 12:27:00,
2013-04-25 05:32:00,51.5,42.4,30.05,NW,307,5.0,8.0,71,0.00,,,0.00,WeatherCatV1.10B1784,2013-04-25 12:32:00,
2013-04-25 05:37:00,51.5,42.4,30.05,WNW,293,7.0,8.0,71,0.00,,,0.00,WeatherCatV1.10B1784,2013-04-25 12:37:00,
2013-04-25 05:42:00,51.5,42.8,30.05,WNW,293,8.0,10.0,72,0.00,,,0.00,WeatherCatV1.10B1784,2013-04-25 12:42:00,
2013-04-25 05:47:00,51.6,43.6,30.05,NW,307,6.0,11.0,74,0.00,,,0.00,WeatherCatV1.10B1784,2013-04-25 12:47:00,
2013-04-25 05:52:00,51.5,43.1,30.05,NW,309,4.0,11.0,73,0.00,,,0.00,WeatherCatV1.10B1784,2013-04-25 12:52:00,
2013-04-25 05:57:00,51.4,43.0,30.05,NW,305,4.0,6.0,73,0.00,,,0.00,WeatherCatV1.10B1784,2013-04-25 12:57:00,
2013-04-25 06:02:00,51.2,42.5,30.05,West,259,4.0,4.0,72,0.00,,,0.00,WeatherCatV1.10B1784,2013-04-25 13:02:00,
2013-04-25 06:07:00,50.9,41.5,30.05,West,278,5.0,7.0,70,0.00,,,0.00,WeatherCatV1.10B1784,2013-04-25 13:07:00,
2013-04-25 06:12:00,50.7,41.3,30.05,West,278,8.0,8.0,70,0.00,,,0.00,WeatherCatV1.10B1784,2013-04-25 13:12:00,
2013-04-25 06:17:00,50.6,41.9,30.05,WNW,282,4.0,7.0,72,0.00,,,0.00,WeatherCatV1.10B1784,2013-04-25 13:17:00,
2013-04-25 06:22:00,50.6,41.9,30.05,WNW,283,4.0,5.0,72,0.00,,,0.00,WeatherCatV1.10B1784,2013-04-25 13:22:00,
2013-04-25 06:27:00,50.7,42.0,30.05,West,275,4.0,6.0,72,0.00,,,0.00,WeatherCatV1.10B1784,2013-04-25 13:27:00,
2013-04-25 06:32:00,50.8,42.5,30.05,West,275,2.0,4.0,73,0.00,,,0.00,WeatherCatV1.10B1784,2013-04-25 13:32:00,
2013-04-25 06:37:00,50.7,42.7,30.05,WNW,296,3.0,5.0,74,0.00,,,0.00,WeatherCatV1.10B1784,2013-04-25 13:37:00,
2013-04-25 06:42:00,50.8,43.2,30.05,NNW,328,5.0,8.0,75,0.00,,,0.00,WeatherCatV1.10B1784,2013-04-25 13:42:00,
2013-04-25 06:47:00,51.0,43.7,30.05,NW,304,5.0,6.0,76,0.00,,,0.00,WeatherCatV1.10B1784,2013-04-25 13:47:00,
2013-04-25 06:52:00,51.0,43.7,30.05,NW,326,7.0,12.0,76,0.00,,,0.00,WeatherCatV1.10B1784,2013-04-25 13:52:00,
2013-04-25 06:57:00,51.2,43.9,30.05,NW,319,4.0,10.0,76,0.00,,,0.00,WeatherCatV1.10B1784,2013-04-25 13:57:00,
2013-04-25 07:02:00,51.2,43.9,30.06,WNW,301,9.0,12.0,76,0.00,,,0.00,WeatherCatV1.10B1784,2013-04-25 14:02:00,
2013-04-25 07:07:00,51.5,44.9,30.06,NNW,328,8.0,11.0,78,0.00,,,0.00,WeatherCatV1.10B1784,2013-04-25 14:07:00,
2013-04-25 07:12:00,51.7,45.4,30.06,NW,316,11.0,14.0,79,0.00,,,0.00,WeatherCatV1.10B1784,2013-04-25 14:12:00,
2013-04-25 07:17:00,51.8,45.2,30.05,NW,314,11.0,16.0,78,0.00,,,0.00,WeatherCatV1.10B1784,2013-04-25 14:17:00,
2013-04-25 07:22:00,51.9,45.3,30.05,WNW,301,10.0,13.0,78,0.00,,,0.00,WeatherCatV1.10B1784,2013-04-25 14:22:00,
2013-04-25 07:27:00,51.9,44.6,30.05,WNW,288,6.0,10.0,76,0.00,,,0.00,WeatherCatV1.10B1784,2013-04-25 14:27:00,
2013-04-25 07:32:00,52.0,44.0,30.05,NW,319,10.0,11.0,74,0.00,,,0.00,WeatherCatV1.10B1784,2013-04-25 14:32:00,
2013-04-25 07:37:00,52.2,43.8,30.05,WNW,300,4.0,8.0,73,0.00,,,0.00,WeatherCatV1.10B1784,2013-04-25 14:37:00,
2013-04-25 07:42:00,52.4,44.0,30.05,WNW,298,8.0,9.0,73,0.00,,,0.00,WeatherCatV1.10B1784,2013-04-25 14:42:00,
2013-04-25 07:47:00,52.6,43.8,30.05,WNW,302,5.0,8.0,72,0.00,,,0.00,WeatherCatV1.10B1784,2013-04-25 14:47:00,
2013-04-25 07:52:00,52.8,43.7,30.05,NNW,332,6.0,8.0,71,0.00,,,0.00,WeatherCatV1.10B1784,2013-04-25 14:52:00,
2013-04-25 07:57:00,52.9,44.1,30.05,NW,305,6.0,11.0,72,0.00,,,0.00,WeatherCatV1.10B1784,2013-04-25 14:57:00,
2013-04-25 08:02:00,53.0,44.2,30.05,WNW,287,4.0,8.0,72,0.00,,,0.00,WeatherCatV1.10B1784,2013-04-25 15:02:00,
2013-04-25 08:07:00,53.1,43.9,30.06,WNW,294,6.0,12.0,71,0.00,,,0.00,WeatherCatV1.10B1784,2013-04-25 15:07:00,
2013-04-25 08:12:00,53.2,44.4,30.06,West,275,6.0,12.0,72,0.00,,,0.00,WeatherCatV1.10B1784,2013-04-25 15:12:00,
2013-04-25 08:17:00,53.2,44.4,30.06,WNW,285,5.0,10.0,72,0.00,,,0.00,WeatherCatV1.10B1784,2013-04-25 15:17:00,
2013-04-25 08:22:00,53.3,44.5,30.06,NW,307,4.0,10.0,72,0.00,,,0.00,WeatherCatV1.10B1784,2013-04-25 15:22:00,
2013-04-25 08:27:00,53.3,44.5,30.06,WNW,298,5.0,8.0,72,0.00,,,0.00,WeatherCatV1.10B1784,2013-04-25 15:27:00,
2013-04-25 08:32:00,53.3,44.9,30.06,WNW,297,13.0,13.0,73,0.00,,,0.00,WeatherCatV1.10B1784,2013-04-25 15:32:00,
2013-04-25 08:34:00,53.3,44.9,30.06,WNW,285,5.0,13.0,73,0.00,,,0.00,WeatherCatV1.10B1784,2013-04-25 15:34:00,
2013-04-25 08:39:00,53.3,44.5,30.06,West,280,4.0,7.0,72,0.00,,,0.00,WeatherCatV1.10B1784,2013-04-25 15:39:00,
2013-04-25 08:44:00,53.3,44.9,30.06,West,266,4.0,6.0,73,0.00,,,0.00,WeatherCatV1.10B1784,2013-04-25 15:44:00,
2013-04-25 08:49:00,53.3,44.9,30.06,WNW,295,6.0,11.0,73,0.00,,,0.00,WeatherCatV1.10B1784,2013-04-25 15:49:00,
2013-04-25 08:54:00,53.3,44.9,30.06,West,269,6.0,8.0,73,0.00,,,0.00,WeatherCatV1.10B1784,2013-04-25 15:54:00,
2013-04-25 08:59:00,53.3,45.6,30.06,WNW,298,5.0,9.0,75,0.00,,,0.00,WeatherCatV1.10B1784,2013-04-25 15:59:00,
2013-04-25 09:04:00,53.3,45.6,30.07,NW,315,6.0,15.0,75,0.00,,,0.00,WeatherCatV1.10B1784,2013-04-25 16:04:00,
2013-04-25 09:09:00,53.2,45.1,30.06,NW,305,7.0,12.0,74,0.00,,,0.00,WeatherCatV1.10B1784,2013-04-25 16:09:00,
2013-04-25 09:14:00,53.3,45.2,30.07,NW,311,7.0,13.0,74,0.00,,,0.00,WeatherCatV1.10B1784,2013-04-25 16:14:00,
2013-04-25 09:19:00,53.3,45.2,30.07,WNW,285,4.0,8.0,74,0.00,,,0.00,WeatherCatV1.10B1784,2013-04-25 16:19:00,
2013-04-25 09:24:00,53.4,45.3,30.07,NW,304,11.0,13.0,74,0.00,,,0.00,WeatherCatV1.10B1784,2013-04-25 16:24:00,
2013-04-25 09:29:00,53.5,45.1,30.07,NW,307,6.0,11.0,73,0.00,,,0.00,WeatherCatV1.10B1784,2013-04-25 16:29:00,
2013-04-25 09:34:00,53.6,45.5,30.07,NW,319,10.0,12.0,74,0.00,,,0.00,WeatherCatV1.10B1784,2013-04-25 16:34:00,
2013-04-25 09:39:00,53.5,45.4,30.07,NW,323,7.0,15.0,74,0.00,,,0.00,WeatherCatV1.10B1784,2013-04-25 16:39:00,
2013-04-25 09:44:00,53.5,45.4,30.07,West,276,9.0,12.0,74,0.00,,,0.00,WeatherCatV1.10B1784,2013-04-25 16:44:00,
2013-04-25 09:49:00,53.5,45.8,30.07,NW,310,5.0,9.0,75,0.00,,,0.00,WeatherCatV1.10B1784,2013-04-25 16:49:00,
2013-04-25 09:54:00,53.5,45.8,30.07,NW,316,8.0,10.0,75,0.00,,,0.00,WeatherCatV1.10B1784,2013-04-25 16:54:00,
2013-04-25 09:59:00,53.5,45.8,30.07,WNW,297,5.0,14.0,75,0.00,,,0.00,WeatherCatV1.10B1784,2013-04-25 16:59:00,
2013-04-25 10:04:00,53.6,46.6,30.07,NW,308,5.0,11.0,77,0.00,,,0.00,WeatherCatV1.10B1784,2013-04-25 17:04:00,
2013-04-25 10:09:00,53.6,46.9,30.07,NW,307,7.0,11.0,78,0.00,,,0.00,WeatherCatV1.10B1784,2013-04-25 17:09:00,
2013-04-25 10:14:00,53.6,46.6,30.07,NW,314,7.0,9.0,77,0.00,,,0.00,WeatherCatV1.10B1784,2013-04-25 17:14:00,
2013-04-25 10:19:00,53.7,47.0,30.07,WNW,289,9.0,12.0,78,0.00,,,0.00,WeatherCatV1.10B1784,2013-04-25 17:19:00,
2013-04-25 10:24:00,53.9,46.9,30.07,West,280,6.0,10.0,77,0.00,,,0.00,WeatherCatV1.10B1784,2013-04-25 17:24:00,
2013-04-25 10:29:00,54.1,46.4,30.08,NW,305,10.0,10.0,75,0.00,,,0.00,WeatherCatV1.10B1784,2013-04-25 17:29:00,
2013-04-25 10:34:00,54.3,47.2,30.08,NW,319,5.0,10.0,77,0.00,,,0.00,WeatherCatV1.10B1784,2013-04-25 17:34:00,
2013-04-25 10:39:00,54.5,47.8,30.08,NNW,328,3.0,6.0,78,0.00,,,0.00,WeatherCatV1.10B1784,2013-04-25 17:39:00,
2013-04-25 10:44:00,54.5,47.4,30.08,NW,319,4.0,6.0,77,0.00,,,0.00,WeatherCatV1.10B1784,2013-04-25 17:44:00,
2013-04-25 10:49:00,54.5,47.8,30.08,NNW,336,4.0,7.0,78,0.00,,,0.00,WeatherCatV1.10B1784,2013-04-25 17:49:00,
2013-04-25 10:54:00,54.6,47.9,30.09,WNW,300,5.0,6.0,78,0.00,,,0.00,WeatherCatV1.10B1784,2013-04-25 17:54:00,
2013-04-25 10:59:00,54.6,47.9,30.09,NW,319,4.0,7.0,78,0.00,,,0.00,WeatherCatV1.10B1784,2013-04-25 17:59:00,
2013-04-25 11:04:00,54.5,47.8,30.09,NW,304,4.0,8.0,78,0.00,,,0.00,WeatherCatV1.10B1784,2013-04-25 18:04:00,
2013-04-25 11:09:00,54.5,47.8,30.09,NW,319,4.0,6.0,78,0.00,,,0.00,WeatherCatV1.10B1784,2013-04-25 18:09:00,
2013-04-25 11:14:00,54.4,47.7,30.09,NW,304,6.0,9.0,78,0.00,,,0.00,WeatherCatV1.10B1784,2013-04-25 18:14:00,
2013-04-25 11:19:00,54.3,47.9,30.09,WNW,297,7.0,11.0,79,0.00,,,0.00,WeatherCatV1.10B1784,2013-04-25 18:19:00,
2013-04-25 11:24:00,54.2,47.8,30.09,North,6,6.0,8.0,79,0.00,,,0.00,WeatherCatV1.10B1784,2013-04-25 18:24:00,
2013-04-25 11:29:00,54.3,47.6,30.09,NW,311,4.0,8.0,78,0.00,,,0.00,WeatherCatV1.10B1784,2013-04-25 18:29:00,
2013-04-25 11:34:00,54.4,48.0,30.09,WNW,294,6.0,7.0,79,0.00,,,0.00,WeatherCatV1.10B1784,2013-04-25 18:34:00,
2013-04-25 11:39:00,54.5,48.1,30.09,NNW,342,7.0,7.0,79,0.00,,,0.00,WeatherCatV1.10B1784,2013-04-25 18:39:00,
2013-04-25 11:44:00,54.5,48.1,30.10,NW,325,5.0,8.0,79,0.00,,,0.00,WeatherCatV1.10B1784,2013-04-25 18:44:00,
2013-04-25 11:49:00,54.4,48.0,30.10,NW,319,6.0,8.0,79,0.00,,,0.00,WeatherCatV1.10B1784,2013-04-25 18:49:00,
2013-04-25 11:54:00,54.5,48.5,30.10,NNW,332,3.0,8.0,80,0.00,,,0.00,WeatherCatV1.10B1784,2013-04-25 18:54:00,
2013-04-25 11:59:00,54.8,48.4,30.10,NNW,337,4.0,8.0,79,0.00,,,0.00,WeatherCatV1.10B1784,2013-04-25 18:59:00,
2013-04-25 12:04:00,54.8,48.1,30.10,NNW,336,5.0,7.0,78,0.00,,,0.00,WeatherCatV1.10B1784,2013-04-25 19:04:00,
2013-04-25 12:09:00,55.0,48.3,30.10,NNW,329,5.0,8.0,78,0.00,,,0.00,WeatherCatV1.10B1784,2013-04-25 19:09:00,
2013-04-25 12:14:00,54.9,48.2,30.10,NW,315,6.0,9.0,78,0.00,,,0.00,WeatherCatV1.10B1784,2013-04-25 19:14:00,
2013-04-25 12:19:00,54.9,48.2,30.10,NNW,343,6.0,8.0,78,0.00,,,0.00,WeatherCatV1.10B1784,2013-04-25 19:19:00,
2013-04-25 12:24:00,54.8,48.1,30.10,NW,322,4.0,9.0,78,0.00,,,0.00,WeatherCatV1.10B1784,2013-04-25 19:24:00,
2013-04-25 12:29:00,54.8,48.4,30.10,NNW,332,3.0,9.0,79,0.00,,,0.00,WeatherCatV1.10B1784,2013-04-25 19:29:00,
2013-04-25 12:34:00,54.7,48.3,30.10,NNW,337,4.0,7.0,79,0.00,,,0.00,WeatherCatV1.10B1784,2013-04-25 19:34:00,
2013-04-25 12:39:00,54.8,48.4,30.10,NW,326,3.0,7.0,79,0.00,,,0.00,WeatherCatV1.10B1784,2013-04-25 19:39:00,
2013-04-25 12:44:00,54.6,47.9,30.10,NW,323,5.0,7.0,78,0.00,,,0.00,WeatherCatV1.10B1784,2013-04-25 19:44:00,
2013-04-25 12:49:00,54.6,47.9,30.09,NNW,329,7.0,7.0,78,0.00,,,0.00,WeatherCatV1.10B1784,2013-04-25 19:49:00,
2013-04-25 12:54:00,54.7,48.3,30.09,NNW,329,4.0,6.0,79,0.00,,,0.00,WeatherCatV1.10B1784,2013-04-25 19:54:00,
2013-04-25 12:59:00,54.8,48.7,30.09,North,351,5.0,6.0,80,0.00,,,0.00,WeatherCatV1.10B1784,2013-04-25 19:59:00,
2013-04-25 13:04:00,54.8,48.4,30.09,NNW,333,5.0,6.0,79,0.00,,,0.00,WeatherCatV1.10B1784,2013-04-25 20:04:00,
2013-04-25 13:09:00,54.6,48.2,30.09,NNW,337,6.0,11.0,79,0.00,,,0.00,WeatherCatV1.10B1784,2013-04-25 20:09:00,
2013-04-25 13:14:00,54.5,47.8,30.09,NNW,337,7.0,9.0,78,0.00,,,0.00,WeatherCatV1.10B1784,2013-04-25 20:14:00,
2013-04-25 13:19:00,54.3,47.6,30.09,NNW,338,5.0,8.0,78,0.00,,,0.00,WeatherCatV1.10B1784,2013-04-25 20:19:00,
2013-04-25 13:24:00,54.4,47.7,30.09,NNW,339,6.0,8.0,78,0.00,,,0.00,WeatherCatV1.10B1784,2013-04-25 20:24:00,
2013-04-25 13:29:00,54.6,47.9,30.09,NNW,336,5.0,7.0,78,0.00,,,0.00,WeatherCatV1.10B1784,2013-04-25 20:29:00,
2013-04-25 13:34:00,54.8,48.1,30.09,NW,326,4.0,6.0,78,0.00,,,0.00,WeatherCatV1.10B1784,2013-04-25 20:34:00,
2013-04-25 13:39:00,55.2,48.1,30.09,NW,304,3.0,4.0,77,0.00,,,0.00,WeatherCatV1.10B1784,2013-04-25 20:39:00,
2013-04-25 13:44:00,55.4,48.3,30.09,NW,319,2.0,4.0,77,0.00,,,0.00,WeatherCatV1.10B1784,2013-04-25 20:44:00,
2013-04-25 13:49:00,55.7,48.6,30.09,NW,304,3.0,3.0,77,0.00,,,0.00,WeatherCatV1.10B1784,2013-04-25 20:49:00,
2013-04-25 13:54:00,55.9,48.8,30.09,NNW,337,3.0,4.0,77,0.00,,,0.00,WeatherCatV1.10B1784,2013-04-25 20:54:00,
2013-04-25 13:59:00,55.8,48.3,30.09,WNW,300,1.0,3.0,76,0.00,,,0.00,WeatherCatV1.10B1784,2013-04-25 20:59:00,
2013-04-25 14:04:00,55.8,48.0,30.09,NW,326,0.0,3.0,75,0.00,,,0.00,WeatherCatV1.10B1784,2013-04-25 21:04:00,
2013-04-25 14:09:00,56.2,48.4,30.09,WNW,297,0.0,3.0,75,0.00,,,0.00,WeatherCatV1.10B1784,2013-04-25 21:09:00,
2013-04-25 14:14:00,56.8,48.2,30.09,NW,315,3.0,3.0,73,0.00,,,0.00,WeatherCatV1.10B1784,2013-04-25 21:14:00,
2013-04-25 14:19:00,56.7,47.8,30.09,NNW,347,1.0,3.0,72,0.00,,,0.00,WeatherCatV1.10B1784,2013-04-25 21:19:00,
2013-04-25 14:24:00,56.6,47.7,30.09,NNE,13,0.0,3.0,72,0.00,,,0.00,WeatherCatV1.10B1784,2013-04-25 21:24:00,
2013-04-25 14:29:00,56.4,47.1,30.09,NNW,329,0.0,2.0,71,0.00,,,0.00,WeatherCatV1.10B1784,2013-04-25 21:29:00,
2013-04-25 14:34:00,56.5,47.2,30.09,NNW,340,2.0,3.0,71,0.00,,,0.00,WeatherCatV1.10B1784,2013-04-25 21:34:00,
2013-04-25 14:39:00,56.9,48.3,30.09,NNW,328,1.0,3.0,73,0.00,,,0.00,WeatherCatV1.10B1784,2013-04-25 21:39:00,
2013-04-25 14:44:00,57.2,48.3,30.09,North,350,1.0,3.0,72,0.00,,,0.00,WeatherCatV1.10B1784,2013-04-25 21:44:00,
2013-04-25 14:49:00,57.2,47.5,30.09,North,8,2.0,3.0,70,0.00,,,0.00,WeatherCatV1.10B1784,2013-04-25 21:49:00,
2013-04-25 14:54:00,56.7,47.8,30.09,NNW,332,1.0,3.0,72,0.00,,,0.00,WeatherCatV1.10B1784,2013-04-25 21:54:00,
2013-04-25 14:59:00,56.8,47.5,30.09,NNE,33,2.0,3.0,71,0.00,,,0.00,WeatherCatV1.10B1784,2013-04-25 21:59:00,
2013-04-25 15:04:00,56.5,47.2,30.09,NNW,347,2.0,3.0,71,0.00,,,0.00,WeatherCatV1.10B1784,2013-04-25 22:04:00,
2013-04-25 15:09:00,56.5,47.9,30.09,NNW,344,3.0,3.0,73,0.00,,,0.00,WeatherCatV1.10B1784,2013-04-25 22:09:00,
2013-04-25 15:14:00,56.6,47.3,30.09,North,5,2.0,2.0,71,0.00,,,0.00,WeatherCatV1.10B1784,2013-04-25 22:14:00,
2013-04-25 15:19:00,56.7,48.1,30.09,NNE,30,3.0,4.0,73,0.00,,,0.00,WeatherCatV1.10B1784,2013-04-25 22:19:00,
2013-04-25 15:24:00,56.5,47.9,30.09,NNW,348,2.0,3.0,73,0.00,,,0.00,WeatherCatV1.10B1784,2013-04-25 22:24:00,
2013-04-25 15:29:00,56.5,47.9,30.09,NNE,32,2.0,3.0,73,0.00,,,0.00,WeatherCatV1.10B1784,2013-04-25 22:29:00,
2013-04-25 15:34:00,56.4,48.6,30.08,NNE,26,3.0,4.0,75,0.00,,,0.00,WeatherCatV1.10B1784,2013-04-25 22:34:00,
2013-04-25 15:39:00,56.3,48.1,30.08,North,8,1.0,2.0,74,0.00,,,0.00,WeatherCatV1.10B1784,2013-04-25 22:39:00,
2013-04-25 15:44:00,56.4,47.9,30.08,NNE,20,1.0,2.0,73,0.00,,,0.00,WeatherCatV1.10B1784,2013-04-25 22:44:00,
2013-04-25 15:49:00,56.1,47.9,30.08,ENE,57,1.0,3.0,74,0.00,,,0.00,WeatherCatV1.10B1784,2013-04-25 22:49:00,
2013-04-25 15:54:00,55.6,47.4,30.08,NE,46,2.0,3.0,74,0.00,,,0.00,WeatherCatV1.10B1784,2013-04-25 22:54:00,
2013-04-25 15:59:00,55.3,47.5,30.08,NE,41,3.0,4.0,75,0.00,,,0.00,WeatherCatV1.10B1784,2013-04-25 22:59:00,
2013-04-25 16:04:00,55.5,48.4,30.08,NE,43,3.0,4.0,77,0.00,,,0.00,WeatherCatV1.10B1784,2013-04-25 23:04:00,
2013-04-25 16:09:00,55.9,48.4,30.08,NE,41,4.0,5.0,76,0.00,,,0.00,WeatherCatV1.10B1784,2013-04-25 23:09:00,
2013-04-25 16:14:00,56.1,48.6,30.08,NE,54,2.0,4.0,76,0.00,,,0.00,WeatherCatV1.10B1784,2013-04-25 23:14:00,
2013-04-25 16:19:00,56.5,48.7,30.08,NE,54,2.0,4.0,75,0.00,,,0.00,WeatherCatV1.10B1784,2013-04-25 23:19:00,
2013-04-25 16:24:00,56.4,48.6,30.08,NNE,30,2.0,5.0,75,0.00,,,0.00,WeatherCatV1.10B1784,2013-04-25 23:24:00,
2013-04-25 16:29:00,56.3,48.5,30.08,NE,48,4.0,7.0,75,0.00,,,0.00,WeatherCatV1.10B1784,2013-04-25 23:29:00,
2013-04-25 16:34:00,56.7,48.9,30.08,ENE,68,1.0,8.0,75,0.00,,,0.00,WeatherCatV1.10B1784,2013-04-25 23:34:00,
2013-04-25 16:39:00,57.2,49.0,30.07,NNE,20,7.0,7.0,74,0.00,,,0.00,WeatherCatV1.10B1784,2013-04-25 23:39:00,
2013-04-25 16:44:00,56.5,48.7,30.07,NE,41,6.0,8.0,75,0.00,,,0.00,WeatherCatV1.10B1784,2013-04-25 23:44:00,
2013-04-25 16:49:00,56.3,49.2,30.07,NNE,26,3.0,6.0,77,0.00,,,0.00,WeatherCatV1.10B1784,2013-04-25 23:49:00,
2013-04-25 16:52:00,56.5,49.0,30.07,ENE,77,6.0,8.0,76,0.00,,,0.00,WeatherCatV1.10B1784,2013-04-25 23:52:00,
2013-04-25 16:57:00,56.4,49.3,30.08,ENE,70,6.0,9.0,77,0.00,,,0.00,WeatherCatV1.10B1784,2013-04-25 23:57:00,
2013-04-25 17:02:00,56.4,48.9,30.08,ENE,60,4.0,8.0,76,0.00,,,0.00,WeatherCatV1.10B1784,2013-04-26 00:02:00,
2013-04-25 17:07:00,56.0,48.9,30.07,East,91,8.0,9.0,77,0.00,,,0.00,WeatherCatV1.10B1784,2013-04-26 00:07:00,
2013-04-25 17:12:00,55.7,48.6,30.08,East,82,4.0,8.0,77,0.00,,,0.00,WeatherCatV1.10B1784,2013-04-26 00:12:00,
2013-04-25 17:17:00,55.7,48.6,30.07,NE,47,6.0,9.0,77,0.00,,,0.00,WeatherCatV1.10B1784,2013-04-26 00:17:00,
2013-04-25 17:22:00,56.2,48.7,30.07,East,82,2.0,6.0,76,0.00,,,0.00,WeatherCatV1.10B1784,2013-04-26 00:22:00,
2013-04-25 17:27:00,56.8,48.6,30.07,NNE,29,4.0,7.0,74,0.00,,,0.00,WeatherCatV1.10B1784,2013-04-26 00:27:00,
2013-04-25 17:32:00,57.2,49.3,30.07,East,97,3.0,7.0,75,0.00,,,0.00,WeatherCatV1.10B1784,2013-04-26 00:32:00,
2013-04-25 17:37:00,57.4,49.9,30.07,NE,46,3.0,7.0,76,0.00,,,0.00,WeatherCatV1.10B1784,2013-04-26 00:37:00,
2013-04-25 17:42:00,57.5,49.6,30.07,ENE,74,4.0,5.0,75,0.00,,,0.00,WeatherCatV1.10B1784,2013-04-26 00:42:00,
2013-04-25 17:47:00,57.7,49.5,30.07,ENE,70,5.0,6.0,74,0.00,,,0.00,WeatherCatV1.10B1784,2013-04-26 00:47:00,
2013-04-25 17:52:00,58.0,49.4,30.07,East,86,4.0,7.0,73,0.00,,,0.00,WeatherCatV1.10B1784,2013-04-26 00:52:00,
2013-04-25 17:57:00,58.2,48.8,30.07,East,91,2.0,5.0,71,0.00,,,0.00,WeatherCatV1.10B1784,2013-04-26 00:57:00,
2013-04-25 18:02:00,58.5,48.7,30.07,East,82,5.0,5.0,70,0.00,,,0.00,WeatherCatV1.10B1784,2013-04-26 01:02:00,
2013-04-25 18:07:00,58.1,48.7,30.07,ESE,119,1.0,5.0,71,0.00,,,0.00,WeatherCatV1.10B1784,2013-04-26 01:07:00,
2013-04-25 18:12:00,57.9,49.7,30.07,NE,55,5.0,5.0,74,0.00,,,0.00,WeatherCatV1.10B1784,2013-04-26 01:12:00,
2013-04-25 18:17:00,57.7,49.8,30.07,ESE,102,1.0,8.0,75,0.00,,,0.00,WeatherCatV1.10B1784,2013-04-26 01:17:00,
2013-04-25 18:22:00,57.5,50.0,30.07,ENE,72,3.0,6.0,76,0.00,,,0.00,WeatherCatV1.10B1784,2013-04-26 01:22:00,
2013-04-25 18:27:00,57.3,50.5,30.06,East,80,3.0,4.0,78,0.00,,,0.00,WeatherCatV1.10B1784,2013-04-26 01:27:00,
2013-04-25 18:32:00,57.4,50.6,30.06,NE,55,3.0,4.0,78,0.00,,,0.00,WeatherCatV1.10B1784,2013-04-26 01:32:00,
2013-04-25 18:37:00,57.4,50.6,30.06,NE,39,4.0,5.0,78,0.00,,,0.00,WeatherCatV1.10B1784,2013-04-26 01:37:00,
2013-04-25 18:42:00,57.4,50.6,30.06,ESE,115,2.0,6.0,78,0.00,,,0.00,WeatherCatV1.10B1784,2013-04-26 01:42:00,
2013-04-25 18:47:00,57.3,50.5,30.06,ESE,102,4.0,6.0,78,0.00,,,0.00,WeatherCatV1.10B1784,2013-04-26 01:47:00,
2013-04-25 18:52:00,57.4,50.6,30.07,ESE,106,2.0,4.0,78,0.00,,,0.00,WeatherCatV1.10B1784,2013-04-26 01:52:00,
2013-04-25 18:57:00,57.4,50.6,30.06,ESE,117,2.0,3.0,78,0.00,,,0.00,WeatherCatV1.10B1784,2013-04-26 01:57:00,
2013-04-25 19:02:00,57.6,50.8,30.06,NE,39,3.0,4.0,78,0.00,,,0.00,WeatherCatV1.10B1784,2013-04-26 02:02:00,
2013-04-25 19:07:00,57.3,50.2,30.06,NE,49,4.0,7.0,77,0.00,,,0.00,WeatherCatV1.10B1784,2013-04-26 02:07:00,
2013-04-25 19:12:00,57.0,50.5,30.07,East,92,5.0,8.0,79,0.00,,,0.00,WeatherCatV1.10B1784,2013-04-26 02:12:00,
2013-04-25 19:17:00,57.0,50.5,30.06,ESE,109,1.0,4.0,79,0.00,,,0.00,WeatherCatV1.10B1784,2013-04-26 02:17:00,
2013-04-25 19:22:00,56.8,50.4,30.06,ENE,77,4.0,6.0,79,0.00,,,0.00,WeatherCatV1.10B1784,2013-04-26 02:22:00,
2013-04-25 19:27:00,56.7,50.3,30.06,ENE,67,5.0,5.0,79,0.00,,,0.00,WeatherCatV1.10B1784,2013-04-26 02:27:00,
2013-04-25 19:32:00,56.6,49.8,30.06,ENE,75,5.0,6.0,78,0.00,,,0.00,WeatherCatV1.10B1784,2013-04-26 02:32:00,
2013-04-25 19:37:00,56.4,49.6,30.07,East,99,3.0,3.0,78,0.00,,,0.00,WeatherCatV1.10B1784,2013-04-26 02:37:00,
2013-04-25 19:42:00,56.1,49.3,30.07,NE,54,2.0,5.0,78,0.00,,,0.00,WeatherCatV1.10B1784,2013-04-26 02:42:00,
2013-04-25 19:47:00,55.7,49.3,30.07,ESE,110,5.0,6.0,79,0.00,,,0.00,WeatherCatV1.10B1784,2013-04-26 02:47:00,
2013-04-25 19:52:00,55.5,49.1,30.07,East,79,3.0,4.0,79,0.00,,,0.00,WeatherCatV1.10B1784,2013-04-26 02:52:00,
2013-04-25 19:57:00,55.2,49.1,30.07,ESE,110,4.0,5.0,80,0.00,,,0.00,WeatherCatV1.10B1784,2013-04-26 02:57:00,
2013-04-25 20:02:00,54.8,48.7,30.07,East,94,1.0,3.0,80,0.00,,,0.00,WeatherCatV1.10B1784,2013-04-26 03:02:00,
2013-04-25 20:07:00,54.6,48.9,30.07,ENE,58,2.0,5.0,81,0.00,,,0.00,WeatherCatV1.10B1784,2013-04-26 03:07:00,
2013-04-25 20:12:00,54.4,49.0,30.08,East,91,4.0,5.0,82,0.00,,,0.00,WeatherCatV1.10B1784,2013-04-26 03:12:00,
2013-04-25 20:17:00,54.2,49.1,30.08,ESE,112,5.0,7.0,83,0.00,,,0.00,WeatherCatV1.10B1784,2013-04-26 03:17:00,
2013-04-25 20:22:00,54.1,49.4,30.08,ESE,108,5.0,6.0,84,0.00,,,0.00,WeatherCatV1.10B1784,2013-04-26 03:22:00,
2013-04-25 20:27:00,54.1,49.4,30.08,ESE,112,1.0,6.0,84,0.00,,,0.00,WeatherCatV1.10B1784,2013-04-26 03:27:00,
2013-04-25 20:32:00,54.1,49.4,30.08,ESE,112,4.0,6.0,84,0.00,,,0.00,WeatherCatV1.10B1784,2013-04-26 03:32:00,
2013-04-25 20:37:00,54.1,49.4,30.08,ESE,115,3.0,6.0,84,0.00,,,0.00,WeatherCatV1.10B1784,2013-04-26 03:37:00,
2013-04-25 20:42:00,54.1,49.4,30.08,ESE,123,6.0,8.0,84,0.00,,,0.00,WeatherCatV1.10B1784,2013-04-26 03:42:00,
2013-04-25 20:47:00,53.9,49.2,30.08,ESE,111,4.0,6.0,84,0.00,,,0.00,WeatherCatV1.10B1784,2013-04-26 03:47:00,
2013-04-25 20:52:00,53.9,49.2,30.09,ESE,105,3.0,6.0,84,0.00,,,0.00,WeatherCatV1.10B1784,2013-04-26 03:52:00,
2013-04-25 20:57:00,53.8,49.4,30.08,East,89,3.0,8.0,85,0.00,,,0.00,WeatherCatV1.10B1784,2013-04-26 03:57:00,
2013-04-25 21:01:00,53.9,49.2,30.08,ESE,115,4.0,9.0,84,0.00,,,0.00,WeatherCatV1.10B1784,2013-04-26 04:01:00,
2013-04-25 21:06:00,54.0,49.3,30.09,ESE,117,4.0,8.0,84,0.00,,,0.00,WeatherCatV1.10B1784,2013-04-26 04:06:00,
2013-04-25 21:11:00,54.1,49.1,30.09,ESE,120,7.0,9.0,83,0.00,,,0.00,WeatherCatV1.10B1784,2013-04-26 04:11:00,
2013-04-25 21:16:00,54.1,49.1,30.09,SSE,161,4.0,8.0,83,0.00,,,0.00,WeatherCatV1.10B1784,2013-04-26 04:16:00,
2013-04-25 21:21:00,54.2,49.1,30.09,ESE,113,9.0,9.0,83,0.00,,,0.00,WeatherCatV1.10B1784,2013-04-26 04:21:00,
2013-04-25 21:26:00,54.3,48.9,30.09,ESE,102,6.0,9.0,82,0.00,,,0.00,WeatherCatV1.10B1784,2013-04-26 04:26:00,
2013-04-25 21:31:00,54.3,48.6,30.10,ESE,108,3.0,8.0,81,0.00,,,0.00,WeatherCatV1.10B1784,2013-04-26 04:31:00,
2013-04-25 21:36:00,54.4,48.4,30.10,ESE,122,6.0,9.0,80,0.00,,,0.00,WeatherCatV1.10B1784,2013-04-26 04:36:00,
2013-04-25 21:41:00,54.4,48.0,30.10,SE,131,3.0,7.0,79,0.00,,,0.00,WeatherCatV1.10B1784,2013-04-26 04:41:00,
2013-04-25 21:46:00,54.4,48.0,30.10,ESE,116,2.0,6.0,79,0.00,,,0.00,WeatherCatV1.10B1784,2013-04-26 04:46:00,
2013-04-25 21:51:00,54.3,47.9,30.10,SE,131,1.0,3.0,79,0.00,,,0.00,WeatherCatV1.10B1784,2013-04-26 04:51:00,
2013-04-25 21:56:00,54.2,47.8,30.10,SSE,167,1.0,4.0,79,0.00,,,0.00,WeatherCatV1.10B1784,2013-04-26 04:56:00,
2013-04-25 22:01:00,54.1,47.7,30.10,ESE,120,2.0,4.0,79,0.00,,,0.00,WeatherCatV1.10B1784,2013-04-26 05:01:00,
2013-04-25 22:06:00,54.1,47.4,30.10,SSE,153,2.0,4.0,78,0.00,,,0.00,WeatherCatV1.10B1784,2013-04-26 05:06:00,
2013-04-25 22:11:00,53.9,47.5,30.10,SE,141,2.0,2.0,79,0.00,,,0.00,WeatherCatV1.10B1784,2013-04-26 05:11:00,
2013-04-25 22:16:00,53.8,47.4,30.10,ESE,118,2.0,4.0,79,0.00,,,0.00,WeatherCatV1.10B1784,2013-04-26 05:16:00,
2013-04-25 22:21:00,53.9,47.2,30.10,ESE,109,3.0,5.0,78,0.00,,,0.00,WeatherCatV1.10B1784,2013-04-26 05:21:00,
2013-04-25 22:26:00,54.2,47.1,30.10,SE,137,4.0,5.0,77,0.00,,,0.00,WeatherCatV1.10B1784,2013-04-26 05:26:00,
2013-04-25 22:31:00,54.2,47.1,30.10,SSE,162,1.0,3.0,77,0.00,,,0.00,WeatherCatV1.10B1784,2013-04-26 05:31:00,
2013-04-25 22:36:00,54.1,47.0,30.10,South,174,1.0,1.0,77,0.00,,,0.00,WeatherCatV1.10B1784,2013-04-26 05:36:00,
2013-04-25 22:41:00,54.1,47.4,30.10,ENE,66,2.0,5.0,78,0.00,,,0.00,WeatherCatV1.10B1784,2013-04-26 05:41:00,
2013-04-25 22:46:00,54.3,47.2,30.11,ENE,75,1.0,3.0,77,0.00,,,0.00,WeatherCatV1.10B1784,2013-04-26 05:46:00,
2013-04-25 22:51:00,54.2,47.1,30.11,SSE,148,0.0,2.0,77,0.00,,,0.00,WeatherCatV1.10B1784,2013-04-26 05:51:00,
2013-04-25 22:56:00,54.0,47.3,30.11,SE,132,0.0,1.0,78,0.00,,,0.00,WeatherCatV1.10B1784,2013-04-26 05:56:00,
2013-04-25 23:01:00,53.8,47.1,30.11,SW,226,2.0,3.0,78,0.00,,,0.00,WeatherCatV1.10B1784,2013-04-26 06:01:00,
2013-04-25 23:06:00,53.6,46.9,30.11,SW,229,0.0,2.0,78,0.00,,,0.00,WeatherCatV1.10B1784,2013-04-26 06:06:00,
2013-04-25 23:11:00,53.3,47.0,30.11,NNE,29,0.0,1.0,79,0.00,,,0.00,WeatherCatV1.10B1784,2013-04-26 06:11:00,
2013-04-25 23:16:00,52.9,46.9,30.10,SE,129,0.0,0.0,80,0.00,,,0.00,WeatherCatV1.10B1784,2013-04-26 06:16:00,
2013-04-25 23:21:00,52.6,46.9,30.10,SE,129,0.0,0.0,81,0.00,,,0.00,WeatherCatV1.10B1784,2013-04-26 06:21:00,
2013-04-25 23:26:00,52.2,46.5,30.10,SE,127,0.0,0.0,81,0.00,,,0.00,WeatherCatV1.10B1784,2013-04-26 06:26:00,
2013-04-25 23:31:00,52.2,46.5,30.10,SSE,160,2.0,3.0,81,0.00,,,0.00,WeatherCatV1.10B1784,2013-04-26 06:31:00,
2013-04-25 23:36:00,52.7,47.0,30.10,SSE,156,1.0,1.0,81,0.00,,,0.00,WeatherCatV1.10B1784,2013-04-26 06:36:00,
2013-04-25 23:41:00,52.7,46.7,30.11,SSW,197,2.0,4.0,80,0.00,,,0.00,WeatherCatV1.10B1784,2013-04-26 06:41:00,
2013-04-25 23:46:00,52.8,46.8,30.11,SSE,156,0.0,1.0,80,0.00,,,0.00,WeatherCatV1.10B1784,2013-04-26 06:46:00,
2013-04-25 23:51:00,52.8,46.8,30.11,NW,305,3.0,4.0,80,0.00,,,0.00,WeatherCatV1.10B1784,2013-04-26 06:51:00,
2013-04-25 23:56:00,52.7,46.4,30.12,WNW,295,0.0,1.0,79,0.00,,,0.00,WeatherCatV1.10B1784,2013-04-26 06:56:00,